Time;durP1;ratioP1;P1;durP2;ratioP2;P2;SDS_P1;SDS_P2;PMS_P1;PMS_P2;Temp;Humidity;BMP_temperature;BMP_pressure;BME280_temperature;BME280_humidity;BME280_pressure;Samples;Min_cycle;Max_cycle;Signal;HPM_P1;HPM_P2
2023/07/06 00:01:19;;;;;;;7.13;5.70;;;;;;;;;;5055788;28;20033;-71
2023/07/06 00:03:44;;;;;;;7.90;5.85;;;;;;;;;;5058765;28;20124;-71
2023/07/06 00:06:10;;;;;;;7.17;5.33;;;;;;;;;;5047557;28;20116;-70
2023/07/06 00:08:37;;;;;;;7.57;5.90;;;;;;;;;;5070776;28;20265;-70
2023/07/06 00:11:03;;;;;;;6.65;5.50;;;;;;;;;;5063712;28;20028;-70
2023/07/06 00:13:28;;;;;;;8.55;5.50;;;;;;;;;;5055063;28;20029;-71
2023/07/06 00:15:53;;;;;;;8.60;5.33;;;;;;;;;;5050353;28;20036;-70
2023/07/06 00:18:22;;;;;;;7.05;5.18;;;;;;;;;;5044211;28;20021;-70
2023/07/06 00:20:49;;;;;;;8.38;5.47;;;;;;;;;;5026528;28;20029;-71
2023/07/06 00:23:14;;;;;;;7.90;5.60;;;;;;;;;;5044159;28;20107;-72
2023/07/06 00:25:42;;;;;;;8.07;5.33;;;;;;;;;;5045971;28;20508;-70
2023/07/06 00:28:08;;;;;;;6.47;5.43;;;;;;;;;;5051454;28;20283;-70
2023/07/06 00:33:15;;;;;;;6.93;5.47;;;;;;;;;;5060535;28;20033;-70
2023/07/06 00:35:40;;;;;;;9.38;5.38;;;;;;;;;;5033020;28;20045;-69
2023/07/06 00:38:10;;;;;;;6.97;5.28;;;;;;;;;;5059503;28;20033;-71
2023/07/06 00:40:36;;;;;;;5.97;4.82;;;;;;;;;;5030266;28;20107;-70
2023/07/06 00:43:02;;;;;;;6.40;5.30;;;;;;;;;;5029514;28;20033;-69
2023/07/06 00:45:28;;;;;;;9.50;5.70;;;;;;;;;;5037138;28;20029;-70
2023/07/06 00:47:56;;;;;;;9.32;5.53;;;;;;;;;;5066669;28;20375;-71
2023/07/06 00:50:21;;;;;;;6.38;5.60;;;;;;;;;;5045456;28;20030;-70
2023/07/06 00:52:48;;;;;;;6.22;5.25;;;;;;;;;;5064045;28;20381;-71
2023/07/06 00:55:15;;;;;;;7.25;5.15;;;;;;;;;;5027073;28;20033;-71
2023/07/06 00:57:40;;;;;;;9.02;5.32;;;;;;;;;;5050909;28;20041;-69
2023/07/06 01:00:06;;;;;;;6.00;4.97;;;;;;;;;;5066726;28;20036;-72
2023/07/06 01:02:32;;;;;;;6.30;5.10;;;;;;;;;;5047461;28;20033;-72
2023/07/06 01:04:57;;;;;;;5.50;4.67;;;;;;;;;;5049248;28;20028;-69
2023/07/06 01:07:24;;;;;;;6.50;4.80;;;;;;;;;;5049232;28;20123;-71
2023/07/06 01:09:50;;;;;;;5.38;4.55;;;;;;;;;;5028788;28;20037;-71
2023/07/06 01:12:16;;;;;;;6.15;4.97;;;;;;;;;;5048902;28;20056;-71
2023/07/06 01:14:41;;;;;;;7.28;5.18;;;;;;;;;;5049070;28;20078;-71
2023/07/06 01:17:14;;;;;;;6.55;5.03;;;;;;;;;;5053853;28;20120;-70
2023/07/06 01:19:51;;;;;;;6.88;4.43;;;;;;;;;;5054048;28;20043;-70
2023/07/06 01:22:17;;;;;;;7.63;5.15;;;;;;;;;;5066009;28;20559;-71
2023/07/06 01:24:54;;;;;;;6.65;5.00;;;;;;;;;;5047280;28;20124;-71
2023/07/06 01:27:32;;;;;;;7.03;5.22;;;;;;;;;;5062020;28;20064;-71
2023/07/06 01:29:57;;;;;;;5.70;4.90;;;;;;;;;;5048973;28;20044;-70
2023/07/06 01:32:23;;;;;;;7.68;4.90;;;;;;;;;;5065505;28;20077;-70
2023/07/06 01:35:12;;;;;;;6.38;5.13;;;;;;;;;;5029593;28;20532;-70
2023/07/06 01:37:38;;;;;;;7.17;5.27;;;;;;;;;;5029068;28;20047;-70
2023/07/06 01:40:09;;;;;;;5.40;4.55;;;;;;;;;;5045863;28;20033;-69
2023/07/06 01:42:35;;;;;;;5.82;4.57;;;;;;;;;;5061929;28;20437;-72
2023/07/06 01:45:04;;;;;;;7.20;5.07;;;;;;;;;;5045772;28;20040;-70
2023/07/06 01:47:31;;;;;;;6.22;4.40;;;;;;;;;;5056894;28;20073;-73
2023/07/06 01:49:56;;;;;;;6.25;4.50;;;;;;;;;;5065652;28;20162;-70
2023/07/06 01:52:39;;;;;;;6.05;4.45;;;;;;;;;;5047323;28;20127;-70
2023/07/06 01:55:09;;;;;;;7.35;4.93;;;;;;;;;;5049709;28;20040;-71
2023/07/06 01:57:36;;;;;;;6.22;5.05;;;;;;;;;;5045811;28;20125;-70
2023/07/06 02:00:05;;;;;;;5.90;4.75;;;;;;;;;;5028376;28;20025;-71
2023/07/06 02:02:31;;;;;;;5.75;4.78;;;;;;;;;;5031595;28;20759;-70
2023/07/06 02:04:56;;;;;;;5.53;4.70;;;;;;;;;;5046222;28;20116;-70
2023/07/06 02:07:21;;;;;;;7.57;4.70;;;;;;;;;;5047200;28;20485;-70
2023/07/06 02:09:47;;;;;;;8.93;4.90;;;;;;;;;;5065853;28;20037;-71
2023/07/06 02:12:15;;;;;;;6.75;4.63;;;;;;;;;;5066338;28;20306;-70
2023/07/06 02:14:42;;;;;;;6.60;5.13;;;;;;;;;;5041940;28;20037;-71
2023/07/06 02:17:07;;;;;;;6.13;4.88;;;;;;;;;;5059969;28;20068;-70
2023/07/06 02:19:35;;;;;;;7.15;4.88;;;;;;;;;;5065311;28;20063;-71
2023/07/06 02:22:03;;;;;;;8.40;4.55;;;;;;;;;;5065598;28;20045;-71
2023/07/06 02:24:28;;;;;;;7.88;5.05;;;;;;;;;;5050987;28;20025;-71
2023/07/06 02:26:55;;;;;;;6.63;4.55;;;;;;;;;;5022447;28;20725;-71
2023/07/06 02:29:20;;;;;;;6.07;4.78;;;;;;;;;;5031633;28;20029;-72
2023/07/06 02:31:46;;;;;;;6.05;4.57;;;;;;;;;;5063227;28;20480;-71
2023/07/06 02:34:11;;;;;;;6.63;4.75;;;;;;;;;;5069870;28;20052;-71
2023/07/06 02:36:37;;;;;;;5.75;4.53;;;;;;;;;;5050509;28;20536;-70
2023/07/06 02:39:03;;;;;;;6.88;4.82;;;;;;;;;;5056170;28;20033;-71
2023/07/06 02:41:28;;;;;;;6.22;4.97;;;;;;;;;;5065197;28;20121;-71
2023/07/06 02:43:53;;;;;;;6.90;4.93;;;;;;;;;;5056707;28;20048;-70
2023/07/06 02:46:19;;;;;;;8.52;4.97;;;;;;;;;;5052760;28;20433;-70
2023/07/06 02:48:46;;;;;;;5.97;5.10;;;;;;;;;;5054594;28;20041;-71
2023/07/06 02:51:11;;;;;;;6.60;4.97;;;;;;;;;;5026784;28;20035;-72
2023/07/06 02:53:36;;;;;;;9.63;5.07;;;;;;;;;;5040907;28;20036;-71
2023/07/06 02:56:03;;;;;;;8.00;5.50;;;;;;;;;;5064385;28;20189;-70
2023/07/06 02:58:28;;;;;;;9.43;5.60;;;;;;;;;;5059632;28;20286;-71
2023/07/06 03:00:55;;;;;;;6.70;5.57;;;;;;;;;;5026645;28;20038;-70
2023/07/06 03:03:20;;;;;;;9.38;6.00;;;;;;;;;;5043150;28;20651;-70
2023/07/06 03:05:46;;;;;;;9.50;5.85;;;;;;;;;;5034482;28;20028;-70
2023/07/06 03:08:11;;;;;;;8.10;5.88;;;;;;;;;;5044983;28;20526;-70
2023/07/06 03:10:38;;;;;;;9.98;6.20;;;;;;;;;;5037456;28;20044;-71
2023/07/06 03:13:06;;;;;;;9.23;5.60;;;;;;;;;;5026899;28;20047;-70
2023/07/06 03:15:31;;;;;;;9.57;5.70;;;;;;;;;;5045905;28;20040;-71
2023/07/06 03:17:57;;;;;;;7.93;5.82;;;;;;;;;;5063392;28;20036;-71
2023/07/06 03:20:22;;;;;;;8.00;5.77;;;;;;;;;;5046534;28;20044;-70
2023/07/06 03:22:48;;;;;;;7.07;5.50;;;;;;;;;;5047197;28;20325;-70
2023/07/06 03:25:40;;;;;;;10.10;6.03;;;;;;;;;;5042114;28;20465;-70
2023/07/06 03:28:05;;;;;;;7.80;5.50;;;;;;;;;;5060833;28;20059;-71
2023/07/06 03:30:31;;;;;;;7.90;5.80;;;;;;;;;;5063341;28;20025;-71
2023/07/06 03:32:58;;;;;;;8.73;5.57;;;;;;;;;;5064017;28;20033;-70
2023/07/06 03:35:24;;;;;;;9.57;6.07;;;;;;;;;;5028950;28;20037;-69
2023/07/06 03:37:49;;;;;;;7.10;5.30;;;;;;;;;;5039408;28;20583;-70
2023/07/06 03:40:14;;;;;;;9.52;6.45;;;;;;;;;;5045658;28;20037;-72
2023/07/06 03:42:43;;;;;;;10.00;6.18;;;;;;;;;;5026861;28;20560;-70
2023/07/06 03:45:10;;;;;;;8.80;6.20;;;;;;;;;;5010523;28;20045;-71
2023/07/06 03:47:37;;;;;;;7.85;5.55;;;;;;;;;;5039562;28;20282;-72
2023/07/06 03:50:03;;;;;;;9.43;6.07;;;;;;;;;;5048060;28;20036;-72
2023/07/06 03:52:28;;;;;;;7.95;6.00;;;;;;;;;;5068085;28;20045;-71
2023/07/06 03:54:53;;;;;;;9.18;6.13;;;;;;;;;;5074939;28;20594;-71
2023/07/06 03:57:19;;;;;;;9.00;6.10;;;;;;;;;;5075087;28;20574;-70
2023/07/06 03:59:44;;;;;;;8.20;6.90;;;;;;;;;;5075125;28;20045;-71
2023/07/06 04:02:10;;;;;;;8.23;6.00;;;;;;;;;;5074068;28;20500;-73
2023/07/06 04:04:35;;;;;;;6.97;5.88;;;;;;;;;;5065064;28;20289;-71
2023/07/06 04:07:00;;;;;;;8.80;5.97;;;;;;;;;;5039306;28;20040;-71
2023/07/06 04:09:26;;;;;;;8.10;6.30;;;;;;;;;;5068052;28;20412;-71
2023/07/06 04:11:52;;;;;;;9.00;6.65;;;;;;;;;;5050624;28;20302;-71
2023/07/06 04:14:21;;;;;;;9.48;6.07;;;;;;;;;;5064004;28;20110;-65
2023/07/06 04:16:47;;;;;;;8.63;5.80;;;;;;;;;;5030956;28;20057;-71
2023/07/06 04:19:12;;;;;;;8.25;5.55;;;;;;;;;;5060210;28;20515;-71
2023/07/06 04:21:37;;;;;;;7.47;6.03;;;;;;;;;;5062908;28;20028;-70
2023/07/06 04:24:04;;;;;;;9.07;6.17;;;;;;;;;;5048936;28;20033;-71
2023/07/06 04:26:29;;;;;;;9.20;5.88;;;;;;;;;;5067392;28;20394;-70
2023/07/06 04:28:54;;;;;;;8.73;5.97;;;;;;;;;;5052581;28;20126;-68
2023/07/06 04:31:20;;;;;;;9.40;6.30;;;;;;;;;;5063108;28;20040;-68
2023/07/06 04:33:48;;;;;;;11.30;6.23;;;;;;;;;;5060952;28;20463;-67
2023/07/06 04:36:17;;;;;;;9.82;5.97;;;;;;;;;;5062415;28;20325;-71
2023/07/06 04:38:43;;;;;;;11.38;6.15;;;;;;;;;;5062588;28;20143;-68
2023/07/06 04:41:09;;;;;;;7.90;5.40;;;;;;;;;;5063057;28;20125;-71
2023/07/06 04:43:34;;;;;;;8.13;5.30;;;;;;;;;;5063160;28;20473;-69
2023/07/06 04:45:59;;;;;;;7.50;5.53;;;;;;;;;;5058849;28;20032;-68
2023/07/06 04:48:25;;;;;;;8.05;5.55;;;;;;;;;;5063559;28;20218;-71
2023/07/06 04:50:52;;;;;;;7.53;5.53;;;;;;;;;;5061039;28;20040;-71
2023/07/06 04:53:18;;;;;;;7.50;5.60;;;;;;;;;;5060642;28;20036;-65
2023/07/06 04:55:43;;;;;;;7.45;5.20;;;;;;;;;;5058504;28;20062;-66
2023/07/06 04:58:09;;;;;;;7.10;5.13;;;;;;;;;;5064144;28;20060;-69
2023/07/06 05:00:37;;;;;;;6.90;5.50;;;;;;;;;;5044982;28;20115;-71
2023/07/06 05:03:03;;;;;;;8.30;5.38;;;;;;;;;;5060432;28;20036;-70
2023/07/06 05:05:30;;;;;;;7.20;4.82;;;;;;;;;;5061601;28;20032;-69
2023/07/06 05:07:56;;;;;;;7.47;5.40;;;;;;;;;;5059816;28;20127;-76
2023/07/06 05:10:21;;;;;;;7.50;4.78;;;;;;;;;;5049127;28;20482;-70
2023/07/06 05:12:46;;;;;;;7.20;5.47;;;;;;;;;;5043116;28;20033;-69
2023/07/06 05:15:12;;;;;;;6.93;5.13;;;;;;;;;;5041464;28;20377;-76
2023/07/06 05:17:38;;;;;;;7.75;5.35;;;;;;;;;;5043461;28;20040;-72
2023/07/06 05:20:06;;;;;;;8.13;5.85;;;;;;;;;;5059349;28;20170;-71
2023/07/06 05:22:31;;;;;;;7.28;5.55;;;;;;;;;;5057041;28;20037;-70
2023/07/06 05:24:56;;;;;;;6.87;5.07;;;;;;;;;;5039627;28;20025;-70
2023/07/06 05:27:24;;;;;;;7.70;5.20;;;;;;;;;;5055242;28;20298;-69
2023/07/06 05:29:50;;;;;;;8.50;6.13;;;;;;;;;;5057121;28;20037;-68
2023/07/06 05:32:15;;;;;;;7.57;6.05;;;;;;;;;;5059156;28;20033;-69
2023/07/06 05:34:40;;;;;;;7.33;5.90;;;;;;;;;;5057109;28;20111;-70
2023/07/06 05:37:05;;;;;;;10.48;5.57;;;;;;;;;;5057681;28;22520;-68
2023/07/06 05:39:31;;;;;;;6.57;5.27;;;;;;;;;;5039564;28;20425;-70
2023/07/06 05:41:56;;;;;;;6.20;5.43;;;;;;;;;;5039775;28;20298;-68
2023/07/06 05:44:21;;;;;;;6.23;5.00;;;;;;;;;;5040539;28;20037;-72
2023/07/06 05:46:46;;;;;;;11.27;5.77;;;;;;;;;;5057035;28;20188;-64
2023/07/06 05:49:11;;;;;;;7.37;5.80;;;;;;;;;;5059372;28;20383;-68
2023/07/06 05:51:37;;;;;;;7.50;6.20;;;;;;;;;;5040321;28;20283;-69
2023/07/06 05:54:02;;;;;;;7.70;5.63;;;;;;;;;;5057061;28;20126;-70
2023/07/06 05:56:29;;;;;;;8.27;6.10;;;;;;;;;;5035040;28;20837;-71
2023/07/06 05:58:54;;;;;;;8.40;5.57;;;;;;;;;;5058891;28;20059;-70
2023/07/06 06:01:22;;;;;;;7.15;5.32;;;;;;;;;;5059594;28;20078;-73
2023/07/06 06:03:47;;;;;;;7.63;5.30;;;;;;;;;;5049908;28;20499;-72
2023/07/06 06:06:12;;;;;;;6.60;5.50;;;;;;;;;;5043641;28;20032;-70
2023/07/06 06:08:38;;;;;;;7.60;5.40;;;;;;;;;;5063267;28;20405;-73
2023/07/06 06:11:03;;;;;;;6.38;5.35;;;;;;;;;;5059888;28;20095;-71
2023/07/06 06:13:30;;;;;;;7.07;5.18;;;;;;;;;;5027904;28;20025;-72
2023/07/06 06:15:55;;;;;;;7.72;5.05;;;;;;;;;;5060900;28;20044;-70
2023/07/06 06:18:21;;;;;;;7.57;5.10;;;;;;;;;;5062937;28;20474;-73
2023/07/06 06:20:47;;;;;;;5.60;4.50;;;;;;;;;;5060721;28;20025;-71
2023/07/06 06:23:13;;;;;;;7.32;4.97;;;;;;;;;;5041797;28;20024;-71
2023/07/06 06:25:38;;;;;;;7.53;5.70;;;;;;;;;;5032486;28;20047;-69
2023/07/06 06:28:04;;;;;;;6.70;5.15;;;;;;;;;;5036102;28;20048;-72
2023/07/06 06:30:29;;;;;;;8.38;5.25;;;;;;;;;;5058286;28;20528;-67
2023/07/06 06:32:56;;;;;;;7.90;5.10;;;;;;;;;;5060612;28;20024;-72
2023/07/06 06:35:23;;;;;;;6.90;5.32;;;;;;;;;;5062145;28;20052;-70
2023/07/06 06:37:48;;;;;;;6.72;5.18;;;;;;;;;;5060766;28;20028;-70
2023/07/06 06:40:14;;;;;;;7.10;5.10;;;;;;;;;;5055402;28;20027;-71
2023/07/06 06:42:39;;;;;;;7.65;5.00;;;;;;;;;;5062644;28;20332;-72
2023/07/06 06:45:05;;;;;;;9.38;5.38;;;;;;;;;;5062943;28;20032;-70
2023/07/06 06:47:32;;;;;;;8.50;5.72;;;;;;;;;;5038733;28;20028;-73
2023/07/06 06:49:57;;;;;;;7.07;5.32;;;;;;;;;;5054073;28;20482;-70
2023/07/06 06:52:23;;;;;;;7.65;5.18;;;;;;;;;;5058200;28;20139;-70
2023/07/06 06:54:50;;;;;;;8.93;6.00;;;;;;;;;;5061562;28;20036;-70
2023/07/06 06:57:16;;;;;;;8.35;5.28;;;;;;;;;;5059331;28;20303;-71
2023/07/06 06:59:43;;;;;;;7.85;5.32;;;;;;;;;;5043227;28;20389;-69
2023/07/06 07:02:08;;;;;;;7.40;4.90;;;;;;;;;;5041689;28;20040;-68
2023/07/06 07:04:33;;;;;;;6.70;5.13;;;;;;;;;;5056441;28;20102;-70
2023/07/06 07:07:03;;;;;;;7.53;4.90;;;;;;;;;;5059772;28;20090;-68
2023/07/06 07:09:28;;;;;;;7.28;4.95;;;;;;;;;;5061031;28;20452;-70
2023/07/06 07:11:53;;;;;;;7.30;5.03;;;;;;;;;;5059741;28;20068;-67
2023/07/06 07:14:18;;;;;;;6.53;4.80;;;;;;;;;;5058989;28;20165;-70
2023/07/06 07:16:44;;;;;;;8.02;5.22;;;;;;;;;;5059279;28;20311;-69
2023/07/06 07:19:09;;;;;;;5.97;4.85;;;;;;;;;;5055427;28;20040;-69
2023/07/06 07:21:35;;;;;;;7.80;5.10;;;;;;;;;;5041086;28;20411;-72
2023/07/06 07:24:01;;;;;;;7.72;5.18;;;;;;;;;;5059358;28;20055;-71
2023/07/06 07:26:26;;;;;;;6.90;5.07;;;;;;;;;;5026101;28;20417;-71
2023/07/06 07:28:52;;;;;;;6.47;4.60;;;;;;;;;;5042531;28;20304;-71
2023/07/06 07:31:17;;;;;;;5.82;4.60;;;;;;;;;;5045186;28;20115;-71
2023/07/06 07:33:43;;;;;;;8.10;4.75;;;;;;;;;;5029029;28;20044;-75
2023/07/06 07:36:12;;;;;;;5.53;4.22;;;;;;;;;;5037186;28;20064;-69
2023/07/06 07:38:37;;;;;;;5.32;4.70;;;;;;;;;;5044351;28;20082;-69
2023/07/06 07:41:03;;;;;;;5.65;4.47;;;;;;;;;;5030969;28;20037;-70
2023/07/06 07:43:29;;;;;;;6.25;4.40;;;;;;;;;;5062930;28;20041;-70
2023/07/06 07:46:03;;;;;;;6.10;4.82;;;;;;;;;;5058910;28;20131;-72
2023/07/06 07:48:29;;;;;;;7.28;4.80;;;;;;;;;;5039394;28;20048;-71
2023/07/06 07:50:58;;;;;;;5.07;4.32;;;;;;;;;;5041118;28;20042;-71
2023/07/06 07:53:24;;;;;;;6.25;4.72;;;;;;;;;;5042133;28;20151;-72
2023/07/06 07:55:49;;;;;;;6.32;4.20;;;;;;;;;;5057600;28;20057;-71
2023/07/06 07:58:15;;;;;;;6.03;4.38;;;;;;;;;;5052810;28;20087;-70
2023/07/06 08:00:40;;;;;;;6.38;4.47;;;;;;;;;;5052172;28;20037;-70
2023/07/06 08:03:06;;;;;;;5.67;4.50;;;;;;;;;;5058120;28;20033;-69
2023/07/06 08:05:31;;;;;;;6.80;4.57;;;;;;;;;;5061575;28;20373;-73
2023/07/06 08:07:56;;;;;;;6.40;5.00;;;;;;;;;;5039208;28;20089;-69
2023/07/06 08:10:22;;;;;;;5.05;4.55;;;;;;;;;;5035695;28;20056;-71
2023/07/06 08:12:48;;;;;;;7.33;5.07;;;;;;;;;;5051125;28;20518;-71
2023/07/06 08:15:14;;;;;;;6.38;5.10;;;;;;;;;;5038152;28;20291;-67
2023/07/06 08:17:39;;;;;;;7.20;5.25;;;;;;;;;;5051132;28;20241;-71
2023/07/06 08:20:11;;;;;;;8.13;4.68;;;;;;;;;;5043737;28;20208;-69
2023/07/06 08:22:37;;;;;;;6.70;5.13;;;;;;;;;;5025434;28;20041;-70
2023/07/06 08:25:07;;;;;;;6.57;4.85;;;;;;;;;;5054519;28;20036;-70
2023/07/06 08:27:33;;;;;;;6.68;4.95;;;;;;;;;;5035565;28;20037;-70
2023/07/06 08:29:58;;;;;;;8.65;4.68;;;;;;;;;;5025861;28;20194;-71
2023/07/06 08:32:24;;;;;;;7.60;5.20;;;;;;;;;;5056940;28;20135;-73
2023/07/06 08:34:49;;;;;;;5.88;4.72;;;;;;;;;;5043532;28;20040;-68
2023/07/06 08:37:18;;;;;;;5.57;4.45;;;;;;;;;;5032638;28;20056;-68
2023/07/06 08:39:44;;;;;;;7.00;4.88;;;;;;;;;;5058556;28;20033;-69
2023/07/06 08:42:10;;;;;;;5.63;4.30;;;;;;;;;;5025512;28;20064;-69
2023/07/06 08:44:36;;;;;;;6.15;4.85;;;;;;;;;;5029721;28;20526;-68
2023/07/06 08:47:01;;;;;;;5.95;4.40;;;;;;;;;;5042146;28;20120;-68
2023/07/06 08:49:31;;;;;;;7.57;4.43;;;;;;;;;;5044630;28;20124;-68
2023/07/06 08:52:01;;;;;;;7.18;5.07;;;;;;;;;;5066822;28;20052;-69
2023/07/06 08:54:27;;;;;;;7.38;5.30;;;;;;;;;;5047635;28;20037;-73
2023/07/06 08:56:52;;;;;;;9.00;5.53;;;;;;;;;;5047208;28;20138;-67
2023/07/06 08:59:38;;;;;;;6.70;5.23;;;;;;;;;;5045423;28;20116;-66
2023/07/06 09:02:09;;;;;;;8.57;5.65;;;;;;;;;;5055103;28;20636;-70
2023/07/06 09:04:34;;;;;;;6.68;5.32;;;;;;;;;;5081145;28;20029;-65
2023/07/06 09:07:00;;;;;;;7.40;5.47;;;;;;;;;;5073941;28;20128;-67
2023/07/06 09:09:26;;;;;;;8.10;5.73;;;;;;;;;;5047020;28;20721;-69
2023/07/06 09:11:52;;;;;;;6.90;5.07;;;;;;;;;;5054256;28;20279;-68
2023/07/06 09:14:17;;;;;;;6.25;5.15;;;;;;;;;;5059423;28;20120;-68
2023/07/06 09:16:46;;;;;;;8.83;5.30;;;;;;;;;;5046555;28;20071;-68
2023/07/06 09:19:12;;;;;;;9.13;5.43;;;;;;;;;;5042442;28;20743;-66
2023/07/06 09:21:37;;;;;;;7.85;5.22;;;;;;;;;;5052848;28;20038;-70
2023/07/06 09:24:02;;;;;;;6.97;5.10;;;;;;;;;;5073537;28;20105;-63
2023/07/06 09:26:29;;;;;;;8.52;5.30;;;;;;;;;;5064570;28;20250;-67
2023/07/06 09:29:25;;;;;;;5.75;5.03;;;;;;;;;;5061206;28;20584;-68
2023/07/06 09:32:06;;;;;;;6.82;5.50;;;;;;;;;;5035386;28;20143;-69
2023/07/06 09:34:32;;;;;;;6.35;5.13;;;;;;;;;;5058599;28;20107;-67
2023/07/06 09:36:59;;;;;;;7.47;5.35;;;;;;;;;;5041469;28;20499;-69
2023/07/06 09:39:25;;;;;;;5.93;4.68;;;;;;;;;;5041025;28;20060;-70
2023/07/06 09:41:51;;;;;;;6.20;5.38;;;;;;;;;;5038750;28;20048;-68
2023/07/06 09:44:17;;;;;;;7.43;5.25;;;;;;;;;;5062401;28;20036;-64
2023/07/06 09:46:43;;;;;;;7.15;5.38;;;;;;;;;;5059236;28;20035;-64
2023/07/06 09:49:28;;;;;;;9.38;5.53;;;;;;;;;;5025029;28;20028;-65
2023/07/06 09:51:55;;;;;;;6.93;5.32;;;;;;;;;;5060747;28;22003;-66
2023/07/06 09:54:23;;;;;;;6.97;5.45;;;;;;;;;;5059488;28;20040;-64
2023/07/06 09:56:48;;;;;;;6.93;5.75;;;;;;;;;;5044880;28;20055;-66
2023/07/06 09:59:13;;;;;;;5.82;5.20;;;;;;;;;;5062122;28;20145;-66
2023/07/06 10:01:54;;;;;;;7.28;5.43;;;;;;;;;;5049446;28;20037;-65
2023/07/06 10:04:34;;;;;;;7.15;5.20;;;;;;;;;;5043485;28;20439;-64
2023/07/06 10:07:05;;;;;;;7.68;5.40;;;;;;;;;;5059171;28;20039;-64
2023/07/06 10:09:41;;;;;;;7.65;5.15;;;;;;;;;;5057643;28;20559;-64
2023/07/06 10:12:26;;;;;;;7.10;5.63;;;;;;;;;;5049560;28;20052;-62
2023/07/06 10:14:52;;;;;;;8.38;5.18;;;;;;;;;;5060735;28;20036;-63
2023/07/06 10:17:23;;;;;;;6.40;5.32;;;;;;;;;;5059819;28;20048;-64
2023/07/06 10:19:49;;;;;;;7.00;5.40;;;;;;;;;;5059567;28;20047;-63
2023/07/06 10:22:33;;;;;;;6.53;5.40;;;;;;;;;;5060557;28;20055;-63
2023/07/06 10:25:00;;;;;;;7.13;4.72;;;;;;;;;;5060987;28;20036;-70
2023/07/06 10:27:27;;;;;;;8.07;5.00;;;;;;;;;;5055373;28;20036;-69
2023/07/06 10:29:54;;;;;;;7.70;5.10;;;;;;;;;;5023428;28;20033;-68
2023/07/06 10:32:27;;;;;;;6.28;4.93;;;;;;;;;;5042716;28;20052;-70
2023/07/06 10:35:06;;;;;;;6.03;4.82;;;;;;;;;;5028037;28;20098;-69
2023/07/06 10:37:31;;;;;;;7.50;5.07;;;;;;;;;;5044292;28;20048;-69
2023/07/06 10:40:15;;;;;;;5.88;5.03;;;;;;;;;;5042661;28;20782;-68
2023/07/06 10:42:41;;;;;;;6.95;4.70;;;;;;;;;;5060237;28;20051;-69
2023/07/06 10:45:19;;;;;;;5.57;4.78;;;;;;;;;;5051686;28;20032;-69
2023/07/06 10:47:44;;;;;;;7.30;5.10;;;;;;;;;;5033679;28;20127;-69
2023/07/06 10:50:12;;;;;;;6.47;5.18;;;;;;;;;;5021553;28;20140;-69
2023/07/06 10:52:43;;;;;;;5.82;5.00;;;;;;;;;;5060880;28;20067;-70
2023/07/06 10:55:36;;;;;;;8.05;5.55;;;;;;;;;;5056477;28;20060;-70
2023/07/06 10:58:21;;;;;;;5.72;4.90;;;;;;;;;;5057416;28;20075;-67
2023/07/06 11:00:46;;;;;;;5.75;5.18;;;;;;;;;;5057617;28;20052;-69
2023/07/06 11:03:14;;;;;;;6.97;5.03;;;;;;;;;;5057661;28;20036;-69
2023/07/06 11:05:50;;;;;;;6.53;5.20;;;;;;;;;;5017459;28;20185;-70
2023/07/06 11:08:15;;;;;;;6.55;5.40;;;;;;;;;;5062443;28;20120;-70
2023/07/06 11:10:44;;;;;;;6.30;5.20;;;;;;;;;;5046429;28;20020;-69
2023/07/06 11:13:10;;;;;;;5.90;5.10;;;;;;;;;;5022125;28;20051;-71
2023/07/06 11:15:35;;;;;;;7.18;5.43;;;;;;;;;;5062840;28;20485;-69
2023/07/06 11:18:18;;;;;;;7.53;5.30;;;;;;;;;;5062262;28;20103;-71
2023/07/06 11:21:04;;;;;;;6.68;5.40;;;;;;;;;;5062512;28;20078;-70
2023/07/06 11:23:34;;;;;;;5.75;5.15;;;;;;;;;;5019639;28;20037;-69
2023/07/06 11:25:59;;;;;;;6.70;5.72;;;;;;;;;;5038557;28;20421;-71
2023/07/06 11:28:25;;;;;;;9.00;5.57;;;;;;;;;;5044683;28;20060;-74
2023/07/06 11:31:02;;;;;;;6.53;5.72;;;;;;;;;;5025324;28;20456;-69
2023/07/06 11:33:35;;;;;;;7.25;5.32;;;;;;;;;;5041463;28;20516;-72
2023/07/06 11:36:02;;;;;;;7.85;5.70;;;;;;;;;;5059356;28;20108;-72
2023/07/06 11:38:42;;;;;;;7.55;5.20;;;;;;;;;;5042040;28;20200;-71
2023/07/06 11:41:09;;;;;;;6.05;5.15;;;;;;;;;;5027491;28;20053;-68
2023/07/06 11:43:40;;;;;;;5.97;4.78;;;;;;;;;;5063951;28;20035;-71
2023/07/06 11:46:11;;;;;;;5.72;5.07;;;;;;;;;;5063101;28;20110;-70
2023/07/06 11:48:40;;;;;;;8.60;6.05;;;;;;;;;;5063854;28;20041;-68
2023/07/06 11:51:06;;;;;;;6.82;5.38;;;;;;;;;;5029654;28;20033;-68
2023/07/06 11:56:19;;;;;;;7.03;5.60;;;;;;;;;;5059764;28;20052;-70
2023/07/06 11:58:54;;;;;;;6.75;5.95;;;;;;;;;;5064215;28;20200;-68
2023/07/06 12:01:33;;;;;;;6.82;5.32;;;;;;;;;;5031980;28;20025;-66
2023/07/06 12:03:59;;;;;;;6.95;5.80;;;;;;;;;;5074693;28;20060;-69
2023/07/06 12:06:24;;;;;;;6.25;5.05;;;;;;;;;;5045099;28;20052;-69
2023/07/06 12:08:49;;;;;;;7.07;5.47;;;;;;;;;;5063791;28;20032;-68
2023/07/06 12:11:15;;;;;;;6.73;5.43;;;;;;;;;;5042771;28;20013;-69
2023/07/06 12:13:44;;;;;;;7.13;4.95;;;;;;;;;;5051046;28;20262;-66
2023/07/06 12:16:11;;;;;;;7.35;4.07;;;;;;;;;;5039842;28;20037;-66
2023/07/06 12:18:37;;;;;;;5.85;3.78;;;;;;;;;;5047487;28;20478;-68
2023/07/06 12:21:03;;;;;;;6.75;4.45;;;;;;;;;;5045622;28;20087;-65
2023/07/06 12:23:28;;;;;;;5.35;3.83;;;;;;;;;;5040269;28;20045;-72
2023/07/06 12:25:54;;;;;;;4.53;3.47;;;;;;;;;;5030474;28;20505;-70
2023/07/06 12:28:19;;;;;;;7.95;3.80;;;;;;;;;;5047017;28;20037;-67
2023/07/06 12:30:49;;;;;;;5.73;3.73;;;;;;;;;;5030101;28;20517;-69
2023/07/06 12:33:16;;;;;;;8.38;4.05;;;;;;;;;;5045111;28;20060;-70
2023/07/06 12:35:42;;;;;;;5.32;3.53;;;;;;;;;;5051069;28;20033;-71
2023/07/06 12:38:12;;;;;;;5.43;3.40;;;;;;;;;;5049633;28;20517;-68
2023/07/06 12:40:38;;;;;;;6.05;3.70;;;;;;;;;;5035571;28;20368;-70
2023/07/06 12:43:04;;;;;;;6.95;4.00;;;;;;;;;;5058210;28;20029;-68
2023/07/06 12:45:30;;;;;;;7.15;4.07;;;;;;;;;;5051491;28;20051;-71
2023/07/06 12:48:03;;;;;;;7.97;4.45;;;;;;;;;;5062920;28;20124;-70
2023/07/06 12:50:36;;;;;;;8.32;4.57;;;;;;;;;;5035861;28;20035;-69
2023/07/06 12:53:02;;;;;;;9.88;4.25;;;;;;;;;;5028131;28;20029;-73
2023/07/06 12:55:31;;;;;;;9.07;4.20;;;;;;;;;;5047666;28;20048;-71
2023/07/06 12:57:56;;;;;;;9.68;4.30;;;;;;;;;;5029428;28;20041;-71
2023/07/06 13:00:22;;;;;;;8.32;4.35;;;;;;;;;;5029957;28;20033;-70
2023/07/06 13:02:54;;;;;;;9.75;4.20;;;;;;;;;;5048474;28;20040;-71
2023/07/06 13:05:24;;;;;;;7.18;4.30;;;;;;;;;;5039610;28;20037;-71
2023/07/06 13:07:50;;;;;;;;;;;;;;;;;;5029866;28;20040;-70
2023/07/06 13:10:15;;;;;;;8.23;3.72;;;;;;;;;;5050193;28;19916;-70
2023/07/06 13:12:41;;;;;;;7.97;4.50;;;;;;;;;;5065398;28;20040;-75
2023/07/06 13:15:09;;;;;;;10.27;4.20;;;;;;;;;;5045405;28;20065;-71
2023/07/06 13:17:34;;;;;;;8.55;4.35;;;;;;;;;;5036523;28;20146;-71
2023/07/06 13:19:59;;;;;;;7.13;3.93;;;;;;;;;;5045024;28;20048;-70
2023/07/06 13:22:25;;;;;;;7.57;3.78;;;;;;;;;;5049706;28;20040;-70
2023/07/06 13:24:50;;;;;;;6.43;3.40;;;;;;;;;;5049354;28;20538;-70
2023/07/06 13:27:17;;;;;;;9.50;4.22;;;;;;;;;;5045991;28;20033;-68
2023/07/06 13:29:42;;;;;;;7.13;3.95;;;;;;;;;;5057368;28;20060;-72
2023/07/06 13:32:14;;;;;;;7.57;4.20;;;;;;;;;;5052123;28;20412;-73
2023/07/06 13:34:42;;;;;;;6.28;3.90;;;;;;;;;;5014802;28;20679;-73
2023/07/06 13:37:10;;;;;;;9.45;4.15;;;;;;;;;;5047444;28;20072;-72
2023/07/06 13:39:36;;;;;;;6.05;3.50;;;;;;;;;;5029657;28;20067;-72
2023/07/06 13:42:01;;;;;;;7.90;3.90;;;;;;;;;;5050548;28;20106;-74
2023/07/06 13:44:26;;;;;;;11.50;5.07;;;;;;;;;;5066718;28;20279;-72
2023/07/06 13:46:52;;;;;;;10.67;4.50;;;;;;;;;;5048286;28;20047;-73
2023/07/06 13:49:18;;;;;;;11.82;4.68;;;;;;;;;;5055837;28;20387;-76
2023/07/06 13:51:43;;;;;;;7.25;4.45;;;;;;;;;;5047053;28;20406;-69
2023/07/06 13:54:11;;;;;;;9.50;4.33;;;;;;;;;;5049582;28;20037;-72
2023/07/06 13:56:37;;;;;;;7.50;4.28;;;;;;;;;;5048835;28;20375;-72
2023/07/06 13:59:02;;;;;;;5.53;3.80;;;;;;;;;;5051630;28;20064;-72
2023/07/06 14:01:27;;;;;;;7.80;4.22;;;;;;;;;;5048158;28;20045;-70
2023/07/06 14:03:54;;;;;;;7.75;4.38;;;;;;;;;;5049240;28;20550;-72
2023/07/06 14:06:19;;;;;;;6.30;4.05;;;;;;;;;;5048691;28;20453;-70
2023/07/06 14:08:44;;;;;;;7.80;4.20;;;;;;;;;;5045581;28;20381;-73
2023/07/06 14:11:10;;;;;;;6.67;4.00;;;;;;;;;;5063888;28;20927;-73
2023/07/06 14:13:35;;;;;;;6.47;3.30;;;;;;;;;;5041315;28;20326;-71
2023/07/06 14:16:00;;;;;;;5.97;3.47;;;;;;;;;;5061054;28;20302;-71
2023/07/06 14:18:26;;;;;;;5.57;3.20;;;;;;;;;;5051579;28;20768;-74
2023/07/06 14:20:55;;;;;;;5.18;3.42;;;;;;;;;;5055965;28;20140;-70
2023/07/06 14:23:21;;;;;;;5.03;3.50;;;;;;;;;;5066997;28;20161;-70
2023/07/06 14:25:47;;;;;;;5.30;3.63;;;;;;;;;;5065998;28;20049;-71
2023/07/06 14:28:15;;;;;;;6.47;3.95;;;;;;;;;;5048358;28;20036;-74
2023/07/06 14:30:43;;;;;;;6.50;3.90;;;;;;;;;;5059502;28;20083;-71
2023/07/06 14:33:09;;;;;;;6.30;3.75;;;;;;;;;;5046436;28;20037;-71
2023/07/06 14:35:37;;;;;;;6.80;3.60;;;;;;;;;;5036430;28;20117;-71
2023/07/06 14:38:02;;;;;;;5.63;3.50;;;;;;;;;;5047882;28;20048;-70
2023/07/06 14:40:28;;;;;;;4.57;3.60;;;;;;;;;;5050484;28;20046;-69
2023/07/06 14:42:54;;;;;;;6.70;3.77;;;;;;;;;;5063092;28;20047;-70
2023/07/06 14:45:19;;;;;;;5.00;3.78;;;;;;;;;;5063281;28;20039;-68
2023/07/06 14:47:44;;;;;;;4.90;3.55;;;;;;;;;;5055988;28;21029;-69
2023/07/06 14:50:10;;;;;;;6.30;3.67;;;;;;;;;;5062818;28;20445;-69